Time;durP1;ratioP1;P1;durP2;ratioP2;P2;SDS_P1;SDS_P2;PMS_P1;PMS_P2;Temp;Humidity;BMP_temperature;BMP_pressure;BME280_temperature;BME280_humidity;BME280_pressure;Samples;Min_cycle;Max_cycle;Signal;HPM_P1;HPM_P2
2022/10/26 00:02:25;;;;;;;8.57;7.97;;;;;;;;;;4999672;28;20029;-60
2022/10/26 00:04:50;;;;;;;7.45;6.95;;;;;;;;;;4996520;28;20026;-60
2022/10/26 00:07:16;;;;;;;7.78;7.28;;;;;;;;;;4996538;28;20046;-61
2022/10/26 00:09:41;;;;;;;7.60;7.10;;;;;;;;;;4994757;28;20026;-61
2022/10/26 00:12:06;;;;;;;7.85;7.30;;;;;;;;;;4996273;28;20503;-60
2022/10/26 00:14:32;;;;;;;7.40;6.90;;;;;;;;;;5001794;28;20121;-61
2022/10/26 00:16:57;;;;;;;7.70;7.20;;;;;;;;;;4998705;28;20037;-61
2022/10/26 00:19:23;;;;;;;8.38;7.78;;;;;;;;;;5000656;28;20041;-61
2022/10/26 00:21:48;;;;;;;7.80;7.30;;;;;;;;;;5000555;28;20033;-61
2022/10/26 00:24:14;;;;;;;7.45;6.95;;;;;;;;;;4998149;28;20041;-61
2022/10/26 00:26:40;;;;;;;8.00;7.50;;;;;;;;;;4999998;28;20092;-62
2022/10/26 00:29:06;;;;;;;8.75;7.95;;;;;;;;;;5001555;28;20126;-61
2022/10/26 00:31:31;;;;;;;7.93;7.43;;;;;;;;;;4995409;28;20033;-61
2022/10/26 00:33:56;;;;;;;7.55;7.05;;;;;;;;;;4998176;28;20631;-61
2022/10/26 00:36:23;;;;;;;7.40;6.90;;;;;;;;;;5000424;28;20431;-61
2022/10/26 00:38:53;;;;;;;8.07;7.38;;;;;;;;;;4998861;28;20030;-61
2022/10/26 00:41:31;;;;;;;7.15;6.65;;;;;;;;;;4997364;28;20058;-61
2022/10/26 00:43:57;;;;;;;7.72;7.22;;;;;;;;;;4999901;28;20026;-61
2022/10/26 00:46:31;;;;;;;8.95;8.15;;;;;;;;;;4998125;28;20052;-61
2022/10/26 00:49:15;;;;;;;7.55;7.05;;;;;;;;;;4998040;28;20451;-61
2022/10/26 00:51:49;;;;;;;7.82;7.32;;;;;;;;;;4996941;28;20030;-61
2022/10/26 00:54:17;;;;;;;7.50;7.00;;;;;;;;;;4996407;28;20031;-60
2022/10/26 00:56:45;;;;;;;8.45;7.60;;;;;;;;;;4996439;28;20026;-61
2022/10/26 00:59:11;;;;;;;8.05;7.45;;;;;;;;;;4999439;28;20095;-61
2022/10/26 01:01:40;;;;;;;8.10;7.60;;;;;;;;;;4999131;28;20041;-61
2022/10/26 01:04:05;;;;;;;8.18;7.65;;;;;;;;;;4995372;28;20038;-61
2022/10/26 01:06:32;;;;;;;7.85;7.30;;;;;;;;;;4996003;28;20031;-61
2022/10/26 01:08:58;;;;;;;7.40;6.90;;;;;;;;;;4996667;28;20385;-61
2022/10/26 01:11:23;;;;;;;7.78;7.28;;;;;;;;;;4996728;28;20035;-60
2022/10/26 01:13:52;;;;;;;7.60;7.10;;;;;;;;;;4997050;28;20049;-60
2022/10/26 01:16:48;;;;;;;7.95;7.45;;;;;;;;;;4997247;28;20044;-61
2022/10/26 01:19:46;;;;;;;7.75;7.25;;;;;;;;;;4997234;28;20041;-61
2022/10/26 01:22:33;;;;;;;8.60;8.00;;;;;;;;;;4994071;28;20039;-60
2022/10/26 01:25:12;;;;;;;8.45;7.88;;;;;;;;;;4996800;28;20696;-60
2022/10/26 01:27:40;;;;;;;8.00;7.50;;;;;;;;;;5000415;28;20137;-60
2022/10/26 01:30:23;;;;;;;8.77;8.18;;;;;;;;;;4995084;28;20045;-60
2022/10/26 01:33:20;;;;;;;9.10;8.50;;;;;;;;;;4997082;28;20108;-60
2022/10/26 01:36:07;;;;;;;9.15;8.55;;;;;;;;;;4999044;28;20463;-60
2022/10/26 01:38:41;;;;;;;8.85;8.25;;;;;;;;;;4997783;28;20042;-59
2022/10/26 01:41:14;;;;;;;9.98;9.23;;;;;;;;;;4998038;28;20049;-60
2022/10/26 01:43:44;;;;;;;9.10;8.50;;;;;;;;;;4997183;28;20029;-60
2022/10/26 01:46:11;;;;;;;8.75;8.15;;;;;;;;;;4996329;28;20038;-60
2022/10/26 01:48:38;;;;;;;9.38;8.77;;;;;;;;;;4997956;28;20033;-60
2022/10/26 01:51:06;;;;;;;8.82;8.20;;;;;;;;;;4996034;28;20061;-60
2022/10/26 01:53:31;;;;;;;8.52;7.93;;;;;;;;;;4994793;28;20046;-60
2022/10/26 01:55:58;;;;;;;9.00;8.20;;;;;;;;;;4998375;28;20103;-60
2022/10/26 01:58:47;;;;;;;8.00;7.50;;;;;;;;;;4995104;28;20030;-60
2022/10/26 02:01:43;;;;;;;9.70;9.02;;;;;;;;;;4994568;28;20115;-60
2022/10/26 02:04:27;;;;;;;8.40;7.90;;;;;;;;;;4994946;28;20073;-60
2022/10/26 02:07:02;;;;;;;9.00;8.40;;;;;;;;;;4996198;28;20029;-60
2022/10/26 02:09:35;;;;;;;9.10;8.35;;;;;;;;;;4994684;28;20053;-60
2022/10/26 02:12:10;;;;;;;9.30;8.70;;;;;;;;;;4999252;28;20104;-59
2022/10/26 02:14:39;;;;;;;8.90;8.30;;;;;;;;;;4995907;28;20149;-60
2022/10/26 02:17:12;;;;;;;9.30;8.70;;;;;;;;;;4995464;28;20072;-60
2022/10/26 02:19:50;;;;;;;8.80;8.20;;;;;;;;;;4995984;28;20073;-60
2022/10/26 02:22:37;;;;;;;9.93;9.23;;;;;;;;;;4997093;28;20034;-60
2022/10/26 02:25:26;;;;;;;10.07;9.38;;;;;;;;;;4994446;28;20133;-60
2022/10/26 02:28:00;;;;;;;10.38;9.73;;;;;;;;;;4996145;28;20117;-60
2022/10/26 02:30:26;;;;;;;9.80;9.20;;;;;;;;;;4997193;28;20042;-59
2022/10/26 02:32:55;;;;;;;9.50;8.90;;;;;;;;;;4996229;28;20065;-60
2022/10/26 02:35:26;;;;;;;9.40;8.60;;;;;;;;;;4999663;28;20053;-59
2022/10/26 02:37:53;;;;;;;9.90;9.30;;;;;;;;;;4999092;28;20530;-59
2022/10/26 02:40:23;;;;;;;9.95;9.15;;;;;;;;;;4998792;28;20034;-59
2022/10/26 02:42:50;;;;;;;9.30;8.65;;;;;;;;;;5000857;28;20077;-59
2022/10/26 02:45:21;;;;;;;10.27;9.52;;;;;;;;;;4998872;28;20045;-59
2022/10/26 02:47:46;;;;;;;9.07;8.48;;;;;;;;;;5000594;28;20033;-59
2022/10/26 02:50:12;;;;;;;10.02;9.32;;;;;;;;;;4998397;28;20043;-60
2022/10/26 02:52:49;;;;;;;11.00;10.30;;;;;;;;;;4999824;28;20502;-59
2022/10/26 02:55:26;;;;;;;9.95;9.32;;;;;;;;;;4999562;28;20057;-59
2022/10/26 02:57:58;;;;;;;10.45;9.65;;;;;;;;;;5000672;28;20120;-59
2022/10/26 03:00:24;;;;;;;10.30;9.70;;;;;;;;;;5000108;28;20052;-59
2022/10/26 03:02:56;;;;;;;11.90;9.82;;;;;;;;;;5001555;28;20030;-60
2022/10/26 03:05:27;;;;;;;9.50;8.90;;;;;;;;;;5004551;28;20531;-60
2022/10/26 03:07:54;;;;;;;9.55;8.95;;;;;;;;;;5000443;28;20022;-59
2022/10/26 03:10:20;;;;;;;10.05;9.43;;;;;;;;;;5002743;28;20030;-59
2022/10/26 03:12:46;;;;;;;10.75;9.55;;;;;;;;;;4999646;28;20030;-59
2022/10/26 03:15:11;;;;;;;9.80;9.20;;;;;;;;;;4996336;28;20040;-59
2022/10/26 03:17:36;;;;;;;11.27;10.57;;;;;;;;;;5002230;28;20038;-59
2022/10/26 03:20:02;;;;;;;10.30;9.70;;;;;;;;;;4999162;28;20026;-59
2022/10/26 03:22:27;;;;;;;9.93;9.18;;;;;;;;;;4998679;28;20137;-60
2022/10/26 03:24:53;;;;;;;10.02;9.43;;;;;;;;;;4996201;28;20030;-59
2022/10/26 03:27:18;;;;;;;9.63;9.02;;;;;;;;;;5004559;28;20034;-59
2022/10/26 03:29:43;;;;;;;9.40;8.77;;;;;;;;;;4998428;28;20619;-59
2022/10/26 03:32:09;;;;;;;9.48;8.88;;;;;;;;;;4999798;28;20041;-59
2022/10/26 03:34:34;;;;;;;9.80;9.20;;;;;;;;;;4999788;28;20040;-59
2022/10/26 03:37:00;;;;;;;9.90;9.25;;;;;;;;;;4998212;28;20027;-59
2022/10/26 03:39:25;;;;;;;10.57;9.88;;;;;;;;;;5000941;28;20033;-59
2022/10/26 03:41:50;;;;;;;9.93;9.27;;;;;;;;;;5001869;28;20030;-59
2022/10/26 03:44:16;;;;;;;9.20;8.60;;;;;;;;;;4999377;28;20045;-59
2022/10/26 03:46:41;;;;;;;11.13;10.32;;;;;;;;;;4999034;28;20052;-59
2022/10/26 03:49:06;;;;;;;10.20;9.50;;;;;;;;;;4997172;28;20050;-59
2022/10/26 03:51:32;;;;;;;9.60;9.00;;;;;;;;;;5001000;28;20168;-59
2022/10/26 03:53:57;;;;;;;9.40;8.80;;;;;;;;;;5005994;28;20095;-59
2022/10/26 03:56:23;;;;;;;10.20;9.57;;;;;;;;;;4996148;28;20046;-60
2022/10/26 03:58:48;;;;;;;9.32;8.73;;;;;;;;;;4996786;28;20066;-60
2022/10/26 04:01:14;;;;;;;9.10;8.50;;;;;;;;;;4997064;28;20037;-59
2022/10/26 04:03:39;;;;;;;9.77;9.18;;;;;;;;;;4999634;28;20128;-59
2022/10/26 04:06:05;;;;;;;9.38;8.77;;;;;;;;;;4999177;28;20029;-59
2022/10/26 04:08:30;;;;;;;9.60;9.00;;;;;;;;;;4998115;28;20034;-59
2022/10/26 04:10:56;;;;;;;9.07;8.48;;;;;;;;;;4999303;28;20050;-59
2022/10/26 04:13:22;;;;;;;9.60;9.00;;;;;;;;;;4997537;28;20073;-60
2022/10/26 04:15:48;;;;;;;10.18;9.48;;;;;;;;;;4997269;28;20068;-60
2022/10/26 04:18:13;;;;;;;9.70;9.07;;;;;;;;;;4999677;28;20105;-60
2022/10/26 04:20:42;;;;;;;10.45;9.75;;;;;;;;;;4999224;28;20631;-60
2022/10/26 04:23:13;;;;;;;9.43;8.82;;;;;;;;;;4998991;28;20380;-60
2022/10/26 04:25:39;;;;;;;10.90;10.18;;;;;;;;;;4993412;28;20030;-60
2022/10/26 04:28:05;;;;;;;10.25;9.55;;;;;;;;;;4997508;28;20034;-60
2022/10/26 04:30:32;;;;;;;9.35;8.75;;;;;;;;;;4996310;28;20042;-60
2022/10/26 04:32:58;;;;;;;11.10;10.30;;;;;;;;;;4995971;28;20037;-60
2022/10/26 04:35:23;;;;;;;10.52;9.82;;;;;;;;;;4998170;28;20038;-60
2022/10/26 04:37:49;;;;;;;10.15;9.50;;;;;;;;;;4996935;28;20599;-60
2022/10/26 04:40:14;;;;;;;10.50;9.90;;;;;;;;;;4997336;28;20092;-60
2022/10/26 04:42:44;;;;;;;9.80;9.15;;;;;;;;;;4995496;28;20036;-60
2022/10/26 04:45:11;;;;;;;9.48;8.88;;;;;;;;;;5000043;28;20109;-60
2022/10/26 04:47:36;;;;;;;12.10;10.20;;;;;;;;;;4999858;28;20045;-60
2022/10/26 04:50:02;;;;;;;10.65;9.85;;;;;;;;;;4997437;28;20038;-60
2022/10/26 04:52:27;;;;;;;10.07;9.40;;;;;;;;;;4994758;28;20129;-60
2022/10/26 04:54:52;;;;;;;10.23;9.52;;;;;;;;;;4996347;28;20355;-60
2022/10/26 04:57:18;;;;;;;11.13;10.18;;;;;;;;;;5000053;28;20376;-60
2022/10/26 04:59:43;;;;;;;10.52;9.82;;;;;;;;;;4996891;28;20030;-60
2022/10/26 05:02:08;;;;;;;10.60;9.90;;;;;;;;;;4999412;28;20040;-60
2022/10/26 05:04:34;;;;;;;11.48;10.45;;;;;;;;;;5000056;28;20026;-60
2022/10/26 05:06:59;;;;;;;11.07;10.35;;;;;;;;;;5001979;28;20036;-60
2022/10/26 05:09:25;;;;;;;11.05;10.35;;;;;;;;;;4997133;28;20064;-60
2022/10/26 05:11:50;;;;;;;11.25;10.55;;;;;;;;;;4997896;28;20484;-60
2022/10/26 05:14:15;;;;;;;10.75;10.05;;;;;;;;;;4997514;28;20030;-60
2022/10/26 05:16:43;;;;;;;11.32;10.55;;;;;;;;;;4998905;28;20044;-60
2022/10/26 05:19:08;;;;;;;11.18;10.48;;;;;;;;;;5000782;28;20025;-60
2022/10/26 05:21:34;;;;;;;10.77;10.18;;;;;;;;;;4996855;28;20030;-63
2022/10/26 05:23:59;;;;;;;10.60;9.95;;;;;;;;;;4996786;28;20411;-63
2022/10/26 05:26:25;;;;;;;11.05;10.32;;;;;;;;;;4998209;28;20034;-60
2022/10/26 05:28:51;;;;;;;10.80;10.10;;;;;;;;;;4999085;28;20034;-60
2022/10/26 05:31:16;;;;;;;12.05;11.25;;;;;;;;;;4993693;28;20092;-60
2022/10/26 05:33:42;;;;;;;10.60;10.00;;;;;;;;;;4993674;28;20033;-60
2022/10/26 05:36:07;;;;;;;10.63;10.02;;;;;;;;;;4996893;28;20046;-60
2022/10/26 05:38:33;;;;;;;11.32;10.52;;;;;;;;;;5001808;28;20036;-60
2022/10/26 05:41:00;;;;;;;11.77;11.00;;;;;;;;;;4995546;28;20034;-60
2022/10/26 05:43:26;;;;;;;10.63;9.82;;;;;;;;;;4994015;28;20100;-59
2022/10/26 05:45:52;;;;;;;10.95;10.25;;;;;;;;;;4999579;28;20030;-59
2022/10/26 05:48:18;;;;;;;11.98;11.18;;;;;;;;;;4997391;28;20108;-60
2022/10/26 05:50:43;;;;;;;11.70;11.00;;;;;;;;;;4996313;28;20042;-60
2022/10/26 05:53:09;;;;;;;11.40;10.70;;;;;;;;;;4997468;28;20100;-60
2022/10/26 05:55:34;;;;;;;11.82;11.02;;;;;;;;;;4999643;28;20110;-60
2022/10/26 05:58:00;;;;;;;34.95;27.63;;;;;;;;;;5000055;28;20096;-60
2022/10/26 06:00:27;;;;;;;28.15;25.42;;;;;;;;;;4997276;28;20022;-60
2022/10/26 06:03:16;;;;;;;19.65;18.08;;;;;;;;;;4997111;28;20038;-60
2022/10/26 06:05:57;;;;;;;13.50;12.60;;;;;;;;;;4996202;28;20034;-60
2022/10/26 06:08:25;;;;;;;10.82;10.13;;;;;;;;;;5001231;28;20501;-60
2022/10/26 06:10:52;;;;;;;11.90;11.13;;;;;;;;;;4997843;28;20381;-60
2022/10/26 06:13:18;;;;;;;11.70;11.00;;;;;;;;;;5000331;28;20035;-60
2022/10/26 06:16:25;;;;;;;11.25;10.55;;;;;;;;;;5000154;28;20527;-60
2022/10/26 06:19:13;;;;;;;11.90;11.13;;;;;;;;;;5001894;28;20022;-60
2022/10/26 06:21:56;;;;;;;11.23;10.52;;;;;;;;;;4999957;28;20419;-60
2022/10/26 06:24:53;;;;;;;11.73;11.02;;;;;;;;;;4982625;28;20054;-61
2022/10/26 06:27:36;;;;;;;12.52;11.73;;;;;;;;;;5001848;28;20034;-63
2022/10/26 06:30:09;;;;;;;12.73;11.68;;;;;;;;;;4997431;28;20038;-63
2022/10/26 06:32:35;;;;;;;11.07;10.38;;;;;;;;;;4998631;28;20042;-63
2022/10/26 06:35:34;;;;;;;12.23;11.43;;;;;;;;;;4999409;28;20038;-62
2022/10/26 06:38:03;;;;;;;10.32;9.63;;;;;;;;;;5001762;28;20369;-63
2022/10/26 06:40:31;;;;;;;12.05;11.35;;;;;;;;;;4998517;28;20037;-63
2022/10/26 06:42:58;;;;;;;11.25;10.55;;;;;;;;;;5000499;28;20042;-63
2022/10/26 06:45:24;;;;;;;10.52;9.88;;;;;;;;;;5002255;28;20034;-62
2022/10/26 06:48:09;;;;;;;11.23;10.52;;;;;;;;;;5000699;28;20042;-63
2022/10/26 06:50:45;;;;;;;11.27;10.57;;;;;;;;;;5001624;28;20412;-62
2022/10/26 06:53:33;;;;;;;11.73;10.55;;;;;;;;;;5001517;28;20038;-61
2022/10/26 06:55:59;;;;;;;11.57;9.80;;;;;;;;;;4996498;28;20034;-62
2022/10/26 06:58:29;;;;;;;10.77;10.07;;;;;;;;;;4998593;28;20040;-62
2022/10/26 07:00:56;;;;;;;23.27;11.53;;;;;;;;;;5001713;28;20026;-62
2022/10/26 07:03:22;;;;;;;11.75;10.80;;;;;;;;;;5000475;28;20372;-62
2022/10/26 07:05:47;;;;;;;11.80;11.02;;;;;;;;;;5002200;28;20026;-61
2022/10/26 07:08:13;;;;;;;12.85;12.05;;;;;;;;;;4998189;28;20040;-61
2022/10/26 07:10:38;;;;;;;11.20;10.40;;;;;;;;;;4997118;28;20076;-61
2022/10/26 07:13:05;;;;;;;10.63;9.98;;;;;;;;;;4998287;28;20053;-62
2022/10/26 07:15:31;;;;;;;12.15;11.35;;;;;;;;;;5000128;28;20057;-61
2022/10/26 07:17:56;;;;;;;10.65;9.95;;;;;;;;;;4999735;28;20104;-62
2022/10/26 07:20:22;;;;;;;11.02;10.32;;;;;;;;;;4999707;28;20034;-62
2022/10/26 07:22:54;;;;;;;11.18;10.48;;;;;;;;;;4999669;28;20041;-63
2022/10/26 07:25:21;;;;;;;11.18;10.48;;;;;;;;;;4996336;28;20038;-62
2022/10/26 07:27:46;;;;;;;11.13;10.43;;;;;;;;;;5000915;28;20030;-63
2022/10/26 07:30:12;;;;;;;11.63;10.93;;;;;;;;;;5000568;28;20388;-64
2022/10/26 07:32:37;;;;;;;11.18;10.48;;;;;;;;;;4998374;28;20380;-63
2022/10/26 07:35:03;;;;;;;11.20;10.50;;;;;;;;;;4996800;28;20042;-62
2022/10/26 07:37:29;;;;;;;17.98;10.93;;;;;;;;;;5000790;28;20084;-63
2022/10/26 07:39:54;;;;;;;11.98;11.13;;;;;;;;;;4997949;28;20042;-62
2022/10/26 07:42:19;;;;;;;11.63;10.82;;;;;;;;;;4996837;28;20040;-63
2022/10/26 07:44:45;;;;;;;11.60;10.82;;;;;;;;;;4998404;28;20191;-62
2022/10/26 07:47:10;;;;;;;11.77;10.98;;;;;;;;;;5000393;28;20334;-61
2022/10/26 07:49:35;;;;;;;11.15;10.45;;;;;;;;;;4998406;28;20138;-62
2022/10/26 07:52:01;;;;;;;10.23;9.63;;;;;;;;;;4998758;28;20047;-64
2022/10/26 07:54:26;;;;;;;11.10;10.40;;;;;;;;;;4997098;28;20076;-61
2022/10/26 07:56:51;;;;;;;11.25;10.57;;;;;;;;;;4997081;28;20388;-61
2022/10/26 07:59:17;;;;;;;11.05;10.35;;;;;;;;;;4996553;28;20074;-62
2022/10/26 08:01:43;;;;;;;9.75;9.15;;;;;;;;;;4997855;28;20037;-63
2022/10/26 08:04:09;;;;;;;10.52;9.88;;;;;;;;;;4996185;28;20067;-61
2022/10/26 08:06:34;;;;;;;10.02;9.43;;;;;;;;;;4996612;28;20038;-62
2022/10/26 08:08:59;;;;;;;10.40;9.70;;;;;;;;;;4998539;28;20053;-62
2022/10/26 08:11:25;;;;;;;9.90;9.30;;;;;;;;;;5000583;28;20049;-62
2022/10/26 08:13:54;;;;;;;10.38;9.68;;;;;;;;;;4997284;28;20041;-62
2022/10/26 08:16:20;;;;;;;11.15;10.45;;;;;;;;;;4999118;28;20046;-62
2022/10/26 08:18:49;;;;;;;10.13;9.43;;;;;;;;;;5000506;28;20026;-64
2022/10/26 08:21:15;;;;;;;10.73;9.85;;;;;;;;;;4984461;28;20109;-63
2022/10/26 08:23:40;;;;;;;10.75;10.05;;;;;;;;;;4996447;28;20029;-63
2022/10/26 08:26:06;;;;;;;9.85;9.15;;;;;;;;;;4996335;28;20379;-61
2022/10/26 08:28:32;;;;;;;10.00;9.40;;;;;;;;;;5001358;28;20029;-62
2022/10/26 08:30:57;;;;;;;10.95;10.25;;;;;;;;;;4999242;28;20030;-61
2022/10/26 08:33:23;;;;;;;10.02;9.32;;;;;;;;;;4996641;28;20472;-61
2022/10/26 08:35:54;;;;;;;9.80;9.15;;;;;;;;;;4999429;28;20041;-62
2022/10/26 08:38:20;;;;;;;8.80;8.20;;;;;;;;;;4999852;28;20036;-62
2022/10/26 08:40:45;;;;;;;8.65;8.05;;;;;;;;;;5004759;28;20033;-62
2022/10/26 08:43:26;;;;;;;8.73;8.13;;;;;;;;;;4998943;28;20049;-62
2022/10/26 08:46:00;;;;;;;9.35;8.75;;;;;;;;;;4996374;28;20050;-62
2022/10/26 08:48:36;;;;;;;8.65;7.95;;;;;;;;;;4997327;28;20460;-60
2022/10/26 08:51:13;;;;;;;9.88;9.20;;;;;;;;;;5000903;28;20038;-60
2022/10/26 08:53:55;;;;;;;8.50;7.90;;;;;;;;;;4996482;28;20100;-60
2022/10/26 08:56:25;;;;;;;9.00;8.40;;;;;;;;;;4998512;28;20030;-62
2022/10/26 08:58:59;;;;;;;9.15;8.45;;;;;;;;;;4995241;28;20031;-62
2022/10/26 09:01:25;;;;;;;8.75;8.15;;;;;;;;;;4997419;28;20456;-63
2022/10/26 09:03:50;;;;;;;9.40;8.80;;;;;;;;;;4998785;28;20068;-62
2022/10/26 09:06:40;;;;;;;8.60;7.90;;;;;;;;;;4995074;28;20039;-61
2022/10/26 09:09:20;;;;;;;7.90;7.40;;;;;;;;;;4998132;28;20038;-61
2022/10/26 09:11:59;;;;;;;8.85;8.25;;;;;;;;;;4998871;28;20026;-61
2022/10/26 09:14:43;;;;;;;8.48;7.88;;;;;;;;;;4998299;28;20034;-61
2022/10/26 09:17:40;;;;;;;8.02;7.53;;;;;;;;;;4985769;28;20034;-60
2022/10/26 09:20:25;;;;;;;9.10;8.50;;;;;;;;;;5003059;28;20574;-60
2022/10/26 09:23:28;;;;;;;8.25;7.72;;;;;;;;;;4999172;28;20049;-61
2022/10/26 09:25:59;;;;;;;8.95;8.27;;;;;;;;;;4995208;28;20061;-60
2022/10/26 09:28:26;;;;;;;8.25;7.65;;;;;;;;;;4996757;28;20100;-60
2022/10/26 09:30:52;;;;;;;9.20;8.50;;;;;;;;;;4997140;28;20095;-59
2022/10/26 09:33:21;;;;;;;8.43;7.82;;;;;;;;;;4995211;28;20045;-61
2022/10/26 09:35:50;;;;;;;8.85;8.25;;;;;;;;;;4982915;28;20030;-60
2022/10/26 09:38:38;;;;;;;9.93;9.20;;;;;;;;;;4997393;28;20030;-61
2022/10/26 09:41:06;;;;;;;9.60;8.90;;;;;;;;;;4995493;28;20089;-60
2022/10/26 09:43:36;;;;;;;9.80;9.20;;;;;;;;;;4994966;28;20034;-60
2022/10/26 09:46:01;;;;;;;9.50;8.80;;;;;;;;;;4997327;28;20025;-61
2022/10/26 09:48:44;;;;;;;9.30;8.70;;;;;;;;;;4997050;28;20105;-60
2022/10/26 09:51:10;;;;;;;8.65;8.05;;;;;;;;;;4996460;28;20120;-60
2022/10/26 09:53:35;;;;;;;10.13;7.80;;;;;;;;;;4995880;28;20408;-60
2022/10/26 09:56:09;;;;;;;9.23;8.52;;;;;;;;;;4995033;28;20038;-60
2022/10/26 09:58:58;;;;;;;9.27;8.68;;;;;;;;;;4996928;28;20725;-60
2022/10/26 10:01:31;;;;;;;9.20;8.50;;;;;;;;;;4995998;28;20438;-59
2022/10/26 10:04:12;;;;;;;12.05;8.85;;;;;;;;;;4995069;28;20039;-59
2022/10/26 10:06:40;;;;;;;8.00;7.50;;;;;;;;;;4997454;28;20633;-60
2022/10/26 10:09:17;;;;;;;9.82;9.02;;;;;;;;;;4997730;28;20034;-60
2022/10/26 10:12:01;;;;;;;8.48;7.88;;;;;;;;;;4993065;28;20042;-59
2022/10/26 10:14:53;;;;;;;7.95;7.45;;;;;;;;;;4994229;28;20041;-61
2022/10/26 10:17:21;;;;;;;9.10;8.50;;;;;;;;;;4994640;28;20037;-60
2022/10/26 10:19:47;;;;;;;10.93;10.23;;;;;;;;;;4995771;28;20684;-60
2022/10/26 10:22:17;;;;;;;12.80;12.00;;;;;;;;;;4993049;28;20105;-59
2022/10/26 10:24:52;;;;;;;11.75;11.05;;;;;;;;;;4996342;28;20037;-59
2022/10/26 10:27:18;;;;;;;14.75;13.95;;;;;;;;;;4994202;28;20093;-59
2022/10/26 10:29:51;;;;;;;14.27;13.48;;;;;;;;;;4995939;28;20036;-59
2022/10/26 10:32:21;;;;;;;18.75;17.67;;;;;;;;;;4996576;28;20038;-59
2022/10/26 10:34:48;;;;;;;22.20;21.00;;;;;;;;;;4995106;28;20123;-58
2022/10/26 10:37:43;;;;;;;27.60;26.13;;;;;;;;;;4993539;28;20029;-60
2022/10/26 10:40:20;;;;;;;22.40;21.20;;;;;;;;;;4992738;28;20531;-61
2022/10/26 10:42:46;;;;;;;27.95;26.48;;;;;;;;;;4994959;28;20400;-60
2022/10/26 10:45:20;;;;;;;38.72;36.72;;;;;;;;;;4994704;28;20117;-62
2022/10/26 10:48:10;;;;;;;38.50;36.55;;;;;;;;;;4995300;28;20499;-59
2022/10/26 10:50:36;;;;;;;41.05;38.92;;;;;;;;;;4978429;28;20419;-60
2022/10/26 10:53:22;;;;;;;45.22;42.70;;;;;;;;;;4996077;28;20037;-60
2022/10/26 10:56:09;;;;;;;42.30;40.08;;;;;;;;;;4998766;28;20088;-60
2022/10/26 10:58:52;;;;;;;39.38;37.35;;;;;;;;;;4998780;28;20121;-59
2022/10/26 11:01:21;;;;;;;33.75;31.67;;;;;;;;;;5000267;28;20125;-59
2022/10/26 11:04:32;;;;;;;39.20;37.15;;;;;;;;;;4997561;28;20061;-59
2022/10/26 11:07:02;;;;;;;36.47;34.58;;;;;;;;;;5000023;28;20038;-59
2022/10/26 11:09:32;;;;;;;34.30;32.05;;;;;;;;;;5000012;28;20057;-59
2022/10/26 11:12:14;;;;;;;30.63;29.02;;;;;;;;;;4996884;28;20038;-59
2022/10/26 11:14:45;;;;;;;36.53;34.53;;;;;;;;;;5002117;28;20360;-57
2022/10/26 11:17:24;;;;;;;48.78;46.33;;;;;;;;;;4997826;28;20045;-59
2022/10/26 11:19:56;;;;;;;51.25;48.65;;;;;;;;;;4995076;28;20026;-59
2022/10/26 11:22:28;;;;;;;48.50;46.05;;;;;;;;;;4995551;28;20115;-59
2022/10/26 11:25:01;;;;;;;47.42;45.00;;;;;;;;;;4996429;28;20044;-61
2022/10/26 11:27:35;;;;;;;43.45;41.22;;;;;;;;;;5001029;28;20038;-60
2022/10/26 11:30:20;;;;;;;49.33;46.70;;;;;;;;;;5000509;28;20042;-60
2022/10/26 11:32:52;;;;;;;46.95;44.25;;;;;;;;;;5000719;28;20681;-60
2022/10/26 11:35:30;;;;;;;49.13;46.63;;;;;;;;;;4999728;28;20026;-60
2022/10/26 11:38:27;;;;;;;48.50;45.50;;;;;;;;;;4997784;28;20038;-59
2022/10/26 11:41:24;;;;;;;41.40;39.28;;;;;;;;;;4977496;28;20079;-60
2022/10/26 11:43:56;;;;;;;43.65;41.35;;;;;;;;;;4999270;28;20379;-60
2022/10/26 11:46:34;;;;;;;42.65;40.35;;;;;;;;;;4999646;28;20069;-59
2022/10/26 11:49:16;;;;;;;50.45;47.88;;;;;;;;;;5000048;28;20033;-60
2022/10/26 11:51:47;;;;;;;44.55;42.28;;;;;;;;;;5000724;28;20041;-60
2022/10/26 11:54:20;;;;;;;46.97;44.47;;;;;;;;;;4999467;28;20649;-61
2022/10/26 11:56:49;;;;;;;48.90;46.35;;;;;;;;;;5001149;28;20107;-61
2022/10/26 11:59:19;;;;;;;49.75;47.22;;;;;;;;;;5001584;28;20026;-60
2022/10/26 12:01:47;;;;;;;48.95;46.47;;;;;;;;;;5001116;28;20049;-61
2022/10/26 12:04:13;;;;;;;46.45;44.05;;;;;;;;;;5001240;28;20034;-60
2022/10/26 12:06:39;;;;;;;52.40;49.75;;;;;;;;;;4998912;28;20038;-65
2022/10/26 12:09:16;;;;;;;49.60;47.05;;;;;;;;;;5000525;28;20068;-60
2022/10/26 12:11:42;;;;;;;52.22;49.58;;;;;;;;;;4997973;28;20365;-61
2022/10/26 12:14:44;;;;;;;57.78;54.88;;;;;;;;;;4995382;28;20049;-60
2022/10/26 12:17:32;;;;;;;45.25;42.83;;;;;;;;;;4997718;28;20104;-60
2022/10/26 12:20:06;;;;;;;52.92;50.03;;;;;;;;;;4999833;28;20096;-61
2022/10/26 12:22:36;;;;;;;55.05;52.25;;;;;;;;;;4997751;28;20041;-59
2022/10/26 12:25:13;;;;;;;60.30;57.13;;;;;;;;;;4989107;28;20480;-59
2022/10/26 12:27:39;;;;;;;54.33;51.55;;;;;;;;;;5000947;28;20269;-60
2022/10/26 12:30:16;;;;;;;59.28;56.33;;;;;;;;;;4989185;28;20519;-59
2022/10/26 12:32:46;;;;;;;50.22;47.67;;;;;;;;;;4999463;28;20042;-61
2022/10/26 12:35:31;;;;;;;55.55;52.72;;;;;;;;;;5005107;28;20030;-60
2022/10/26 12:37:57;;;;;;;56.45;53.50;;;;;;;;;;4997918;28;20034;-59
2022/10/26 12:40:32;;;;;;;61.42;58.30;;;;;;;;;;4996351;28;20030;-59
2022/10/26 12:43:17;;;;;;;64.20;60.90;;;;;;;;;;4997686;28;20052;-59
2022/10/26 12:45:44;;;;;;;62.67;59.50;;;;;;;;;;4999449;28;20045;-59
2022/10/26 12:48:20;;;;;;;67.35;64.00;;;;;;;;;;4996237;28;20026;-58
2022/10/26 12:50:46;;;;;;;65.18;61.83;;;;;;;;;;4999321;28;20034;-59
2022/10/26 12:53:17;;;;;;;66.63;63.30;;;;;;;;;;5000929;28;20025;-59
2022/10/26 12:55:46;;;;;;;59.97;56.97;;;;;;;;;;5000424;28;20058;-59
2022/10/26 12:58:36;;;;;;;63.08;59.90;;;;;;;;;;5000158;28;20046;-59
2022/10/26 13:01:02;;;;;;;63.85;60.65;;;;;;;;;;4995316;28;20049;-59
2022/10/26 13:04:05;;;;;;;62.13;58.92;;;;;;;;;;4999523;28;20045;-59
2022/10/26 13:06:58;;;;;;;58.03;55.10;;;;;;;;;;4996994;28;20033;-60
2022/10/26 13:09:28;;;;;;;58.70;55.75;;;;;;;;;;4998707;28;20038;-59
2022/10/26 13:11:56;;;;;;;61.00;57.88;;;;;;;;;;4997407;28;20053;-59
2022/10/26 13:14:36;;;;;;;62.85;59.60;;;;;;;;;;4998994;28;20127;-59
2022/10/26 13:17:04;;;;;;;64.28;60.97;;;;;;;;;;4996680;28;20447;-59
2022/10/26 13:19:39;;;;;;;54.22;51.45;;;;;;;;;;4997913;28;20038;-59
2022/10/26 13:22:12;;;;;;;58.15;55.25;;;;;;;;;;4999846;28;20038;-59
2022/10/26 13:24:47;;;;;;;62.63;59.35;;;;;;;;;;4999065;28;20034;-60
2022/10/26 13:27:15;;;;;;;64.50;61.20;;;;;;;;;;4995234;28;20046;-60
2022/10/26 13:30:02;;;;;;;40.85;38.75;;;;;;;;;;4999226;28;20034;-60
2022/10/26 13:32:52;;;;;;;45.30;43.03;;;;;;;;;;5000720;28;20068;-60
2022/10/26 13:35:20;;;;;;;43.80;41.58;;;;;;;;;;4993697;28;20034;-60
2022/10/26 13:37:48;;;;;;;46.67;44.25;;;;;;;;;;4995436;28;20101;-60
2022/10/26 13:40:20;;;;;;;54.05;51.25;;;;;;;;;;4995142;28;20093;-60
2022/10/26 13:42:51;;;;;;;36.80;34.88;;;;;;;;;;4998739;28;20018;-60
2022/10/26 13:45:24;;;;;;;32.53;30.85;;;;;;;;;;4996733;28;20544;-60
2022/10/26 13:48:07;;;;;;;34.17;32.40;;;;;;;;;;4995690;28;20552;-61
2022/10/26 13:50:45;;;;;;;40.35;38.30;;;;;;;;;;4996688;28;20282;-60
2022/10/26 13:53:18;;;;;;;34.88;33.08;;;;;;;;;;5002863;28;20069;-60
2022/10/26 13:56:02;;;;;;;29.25;27.73;;;;;;;;;;4997753;28;20644;-60
2022/10/26 13:58:35;;;;;;;35.85;34.00;;;;;;;;;;4995439;28;20125;-61
2022/10/26 14:01:02;;;;;;;44.13;41.88;;;;;;;;;;4994661;28;20022;-61
2022/10/26 14:03:28;;;;;;;38.45;36.45;;;;;;;;;;4995892;28;20046;-60
2022/10/26 14:05:53;;;;;;;39.58;37.53;;;;;;;;;;4995230;28;20488;-61
2022/10/26 14:08:20;;;;;;;30.98;29.35;;;;;;;;;;4993116;28;20125;-60
2022/10/26 14:10:51;;;;;;;38.97;36.97;;;;;;;;;;4996597;28;20022;-60
2022/10/26 14:13:22;;;;;;;35.70;33.85;;;;;;;;;;4997506;28;20037;-60
2022/10/26 14:15:48;;;;;;;29.17;27.65;;;;;;;;;;4996337;28;20025;-60
2022/10/26 14:18:23;;;;;;;30.35;28.75;;;;;;;;;;4996018;28;20092;-60
2022/10/26 14:20:55;;;;;;;39.10;37.10;;;;;;;;;;4997911;28;20030;-61
2022/10/26 14:23:32;;;;;;;39.40;37.30;;;;;;;;;;4996098;28;20049;-60
2022/10/26 14:25:57;;;;;;;33.60;31.85;;;;;;;;;;4994473;28;20045;-60
2022/10/26 14:28:29;;;;;;;32.95;31.25;;;;;;;;;;4994602;28;20554;-60
2022/10/26 14:31:13;;;;;;;31.60;29.95;;;;;;;;;;4997728;28;20034;-61
2022/10/26 14:33:38;;;;;;;29.60;28.00;;;;;;;;;;4996563;28;20057;-59
2022/10/26 14:36:04;;;;;;;29.95;28.25;;;;;;;;;;4998109;28;20092;-60
2022/10/26 14:38:36;;;;;;;32.20;30.33;;;;;;;;;;4999232;28;20053;-60
2022/10/26 14:41:02;;;;;;;29.38;27.80;;;;;;;;;;4999602;28;20126;-60
2022/10/26 14:43:27;;;;;;;27.20;25.40;;;;;;;;;;5000199;28;20109;-60
2022/10/26 14:45:53;;;;;;;27.70;26.23;;;;;;;;;;4999806;28;20034;-60
2022/10/26 14:48:29;;;;;;;27.20;25.65;;;;;;;;;;4998726;28;20528;-60
2022/10/26 14:51:02;;;;;;;30.95;28.25;;;;;;;;;;4998514;28;20081;-60
2022/10/26 14:53:39;;;;;;;29.08;27.55;;;;;;;;;;5001059;28;20029;-60
2022/10/26 14:56:19;;;;;;;26.70;25.30;;;;;;;;;;4999379;28;20026;-60